sensor_id;sensor_type;location;lat;lon;timestamp;pressure;altitude;pressure_sealevel;temperature;humidity
1736;BME280;865;53.672;10.250;2023-06-22T00:01:45;101616.63;;;16.80;100.00
1736;BME280;865;53.672;10.250;2023-06-22T00:04:11;101619.66;;;16.96;100.00
1736;BME280;865;53.672;10.250;2023-06-22T00:06:38;101606.63;;;16.92;100.00
1736;BME280;865;53.672;10.250;2023-06-22T00:09:05;101616.47;;;16.87;100.00
1736;BME280;865;53.672;10.250;2023-06-22T00:11:33;101609.78;;;16.75;100.00
1736;BME280;865;53.672;10.250;2023-06-22T00:13:59;101619.88;;;16.60;100.00
1736;BME280;865;53.672;10.250;2023-06-22T00:16:26;101615.56;;;16.58;100.00
1736;BME280;865;53.672;10.250;2023-06-22T00:18:52;101619.38;;;16.48;100.00
1736;BME280;865;53.672;10.250;2023-06-22T00:21:19;101620.56;;;16.37;100.00
1736;BME280;865;53.672;10.250;2023-06-22T00:23:46;101619.56;;;16.41;100.00
1736;BME280;865;53.672;10.250;2023-06-22T00:26:14;101615.84;;;16.49;100.00
1736;BME280;865;53.672;10.250;2023-06-22T00:28:40;101619.03;;;16.60;100.00
1736;BME280;865;53.672;10.250;2023-06-22T00:31:07;101617.63;;;16.78;100.00
1736;BME280;865;53.672;10.250;2023-06-22T00:33:33;101606.81;;;16.85;100.00
1736;BME280;865;53.672;10.250;2023-06-22T00:36:00;101613.47;;;16.69;100.00
1736;BME280;865;53.672;10.250;2023-06-22T00:38:29;101618.63;;;16.72;100.00
1736;BME280;865;53.672;10.250;2023-06-22T00:40:55;101625.28;;;16.85;100.00
1736;BME280;865;53.672;10.250;2023-06-22T00:43:22;101617.88;;;16.69;100.00
1736;BME280;865;53.672;10.250;2023-06-22T00:45:48;101621.41;;;16.68;100.00
1736;BME280;865;53.672;10.250;2023-06-22T00:48:15;101617.47;;;16.82;100.00
1736;BME280;865;53.672;10.250;2023-06-22T00:50:42;101620.66;;;16.62;100.00
1736;BME280;865;53.672;10.250;2023-06-22T00:53:09;101626.00;;;16.61;100.00
1736;BME280;865;53.672;10.250;2023-06-22T00:55:37;101629.81;;;16.51;100.00
1736;BME280;865;53.672;10.250;2023-06-22T00:58:06;101633.72;;;16.37;100.00
1736;BME280;865;53.672;10.250;2023-06-22T01:00:37;101642.75;;;16.29;100.00
1736;BME280;865;53.672;10.250;2023-06-22T01:03:04;101642.84;;;16.26;100.00
1736;BME280;865;53.672;10.250;2023-06-22T01:05:37;101640.63;;;16.41;100.00
1736;BME280;865;53.672;10.250;2023-06-22T01:08:41;101640.41;;;16.49;100.00
1736;BME280;865;53.672;10.250;2023-06-22T01:11:25;101639.19;;;16.61;100.00
1736;BME280;865;53.672;10.250;2023-06-22T01:14:01;101631.47;;;16.55;100.00
1736;BME280;865;53.672;10.250;2023-06-22T01:16:35;101631.47;;;16.55;100.00
1736;BME280;865;53.672;10.250;2023-06-22T01:21:51;101633.16;;;16.28;100.00
1736;BME280;865;53.672;10.250;2023-06-22T01:30:13;101638.72;;;16.47;100.00
1736;BME280;865;53.672;10.250;2023-06-22T01:32:44;101638.44;;;16.56;100.00
1736;BME280;865;53.672;10.250;2023-06-22T01:35:11;101625.72;;;16.42;100.00
1736;BME280;865;53.672;10.250;2023-06-22T01:37:43;101628.78;;;16.27;100.00
1736;BME280;865;53.672;10.250;2023-06-22T01:40:11;101628.00;;;16.23;100.00
1736;BME280;865;53.672;10.250;2023-06-22T01:42:42;101624.81;;;16.12;100.00
1736;BME280;865;53.672;10.250;2023-06-22T01:45:10;101625.63;;;16.15;100.00
1736;BME280;865;53.672;10.250;2023-06-22T01:47:39;101629.84;;;16.21;100.00
1736;BME280;865;53.672;10.250;2023-06-22T01:50:06;101626.09;;;16.28;100.00
1736;BME280;865;53.672;10.250;2023-06-22T01:52:35;101616.50;;;16.27;100.00
1736;BME280;865;53.672;10.250;2023-06-22T01:55:02;101621.66;;;16.30;100.00
1736;BME280;865;53.672;10.250;2023-06-22T01:57:28;101622.47;;;16.32;100.00
1736;BME280;865;53.672;10.250;2023-06-22T02:00:04;101626.66;;;16.10;100.00
1736;BME280;865;53.672;10.250;2023-06-22T02:02:39;101636.50;;;16.03;100.00
1736;BME280;865;53.672;10.250;2023-06-22T02:05:07;101627.75;;;16.01;100.00
1736;BME280;865;53.672;10.250;2023-06-22T02:07:45;101633.72;;;15.77;100.00
1736;BME280;865;53.672;10.250;2023-06-22T02:10:15;101633.81;;;15.72;100.00
1736;BME280;865;53.672;10.250;2023-06-22T02:12:44;101647.66;;;15.79;100.00
1736;BME280;865;53.672;10.250;2023-06-22T02:15:11;101641.53;;;15.78;100.00
1736;BME280;865;53.672;10.250;2023-06-22T02:17:40;101642.47;;;16.08;100.00
1736;BME280;865;53.672;10.250;2023-06-22T02:20:13;101638.22;;;16.04;100.00
1736;BME280;865;53.672;10.250;2023-06-22T02:22:40;101636.50;;;16.03;100.00
1736;BME280;865;53.672;10.250;2023-06-22T02:25:07;101635.50;;;16.06;100.00
1736;BME280;865;53.672;10.250;2023-06-22T02:27:35;101632.78;;;16.09;100.00
1736;BME280;865;53.672;10.250;2023-06-22T02:30:01;101637.19;;;16.08;100.00
1736;BME280;865;53.672;10.250;2023-06-22T02:32:28;101629.31;;;16.08;100.00
1736;BME280;865;53.672;10.250;2023-06-22T02:34:55;101626.38;;;15.88;100.00
1736;BME280;865;53.672;10.250;2023-06-22T02:37:21;101630.00;;;15.84;100.00
1736;BME280;865;53.672;10.250;2023-06-22T02:39:51;101625.75;;;15.80;100.00
1736;BME280;865;53.672;10.250;2023-06-22T02:42:17;101627.56;;;15.76;100.00
1736;BME280;865;53.672;10.250;2023-06-22T02:44:47;101615.50;;;15.69;100.00
1736;BME280;865;53.672;10.250;2023-06-22T02:47:13;101625.53;;;15.53;100.00
1736;BME280;865;53.672;10.250;2023-06-22T02:49:40;101626.56;;;15.47;100.00
1736;BME280;865;53.672;10.250;2023-06-22T02:52:08;101636.00;;;15.55;100.00
1736;BME280;865;53.672;10.250;2023-06-22T02:54:34;101638.72;;;15.52;100.00
1736;BME280;865;53.672;10.250;2023-06-22T02:57:01;101637.59;;;15.62;100.00
1736;BME280;865;53.672;10.250;2023-06-22T02:59:30;101630.97;;;15.45;100.00
1736;BME280;865;53.672;10.250;2023-06-22T03:01:59;101629.66;;;15.29;100.00
1736;BME280;865;53.672;10.250;2023-06-22T03:04:27;101627.09;;;15.26;100.00
1736;BME280;865;53.672;10.250;2023-06-22T03:06:53;101639.84;;;15.41;100.00
1736;BME280;865;53.672;10.250;2023-06-22T03:09:20;101645.75;;;15.51;100.00
1736;BME280;865;53.672;10.250;2023-06-22T03:11:46;101644.19;;;15.42;100.00
1736;BME280;865;53.672;10.250;2023-06-22T03:14:13;101642.78;;;15.29;100.00
1736;BME280;865;53.672;10.250;2023-06-22T03:16:39;101642.88;;;15.26;100.00
1736;BME280;865;53.672;10.250;2023-06-22T03:19:07;101645.22;;;15.37;100.00
1736;BME280;865;53.672;10.250;2023-06-22T03:21:33;101641.72;;;15.38;100.00
1736;BME280;865;53.672;10.250;2023-06-22T03:24:01;101647.84;;;15.37;100.00
1736;BME280;865;53.672;10.250;2023-06-22T03:26:27;101653.81;;;15.43;100.00
1736;BME280;865;53.672;10.250;2023-06-22T03:28:54;101650.31;;;15.43;100.00
1736;BME280;865;53.672;10.250;2023-06-22T03:31:21;101654.41;;;15.55;100.00
1736;BME280;865;53.672;10.250;2023-06-22T03:33:48;101647.81;;;15.38;100.00
1736;BME280;865;53.672;10.250;2023-06-22T03:36:17;101648.69;;;15.39;100.00
1736;BME280;865;53.672;10.250;2023-06-22T03:38:47;101657.94;;;15.54;100.00
1736;BME280;865;53.672;10.250;2023-06-22T03:41:14;101654.53;;;15.50;100.00
1736;BME280;865;53.672;10.250;2023-06-22T03:43:42;101659.03;;;15.45;100.00
1736;BME280;865;53.672;10.250;2023-06-22T03:46:08;101665.69;;;15.24;100.00
1736;BME280;865;53.672;10.250;2023-06-22T03:48:35;101677.06;;;15.26;100.00
1736;BME280;865;53.672;10.250;2023-06-22T03:51:02;101678.84;;;15.22;100.00
1736;BME280;865;53.672;10.250;2023-06-22T03:53:32;101684.63;;;15.38;100.00
1736;BME280;865;53.672;10.250;2023-06-22T03:55:58;101684.13;;;15.58;100.00
1736;BME280;865;53.672;10.250;2023-06-22T03:58:26;101678.69;;;15.64;100.00
1736;BME280;865;53.672;10.250;2023-06-22T04:00:53;101676.91;;;15.68;100.00
1736;BME280;865;53.672;10.250;2023-06-22T04:03:19;101674.22;;;15.69;100.00
1736;BME280;865;53.672;10.250;2023-06-22T04:05:47;101673.88;;;15.83;100.00
1736;BME280;865;53.672;10.250;2023-06-22T04:08:15;101670.25;;;15.87;100.00
1736;BME280;865;53.672;10.250;2023-06-22T04:10:42;101669.38;;;15.87;100.00
1736;BME280;865;53.672;10.250;2023-06-22T04:13:08;101672.25;;;15.78;100.00
1736;BME280;865;53.672;10.250;2023-06-22T04:15:35;101675.41;;;15.92;100.00
1736;BME280;865;53.672;10.250;2023-06-22T04:18:02;101683.56;;;15.81;100.00
1736;BME280;865;53.672;10.250;2023-06-22T04:20:28;101680.81;;;15.86;100.00
1736;BME280;865;53.672;10.250;2023-06-22T04:22:55;101685.34;;;15.79;100.00
1736;BME280;865;53.672;10.250;2023-06-22T04:25:23;101688.81;;;15.81;100.00
1736;BME280;865;53.672;10.250;2023-06-22T04:27:49;101688.66;;;15.87;100.00
1736;BME280;865;53.672;10.250;2023-06-22T04:30:16;101684.22;;;15.89;100.00
1736;BME280;865;53.672;10.250;2023-06-22T04:32:44;101673.66;;;15.91;100.00
1736;BME280;865;53.672;10.250;2023-06-22T04:35:11;101672.59;;;15.98;100.00
1736;BME280;865;53.672;10.250;2023-06-22T04:37:38;101672.09;;;16.15;100.00
1736;BME280;865;53.672;10.250;2023-06-22T04:40:06;101665.09;;;16.15;100.00
1736;BME280;865;53.672;10.250;2023-06-22T04:42:34;101666.72;;;16.20;100.00
1736;BME280;865;53.672;10.250;2023-06-22T04:45:05;101675.09;;;16.34;100.00
1736;BME280;865;53.672;10.250;2023-06-22T04:47:31;101669.06;;;16.30;100.00
1736;BME280;865;53.672;10.250;2023-06-22T04:49:58;101660.16;;;16.34;100.00
1736;BME280;865;53.672;10.250;2023-06-22T04:52:24;101658.19;;;16.43;100.00
1736;BME280;865;53.672;10.250;2023-06-22T04:54:51;101650.72;;;16.57;100.00
1736;BME280;865;53.672;10.250;2023-06-22T04:57:21;101653.53;;;16.51;100.00
1736;BME280;865;53.672;10.250;2023-06-22T05:00:00;101656.56;;;16.67;100.00
1736;BME280;865;53.672;10.250;2023-06-22T05:02:39;101655.81;;;16.93;100.00
1736;BME280;865;53.672;10.250;2023-06-22T05:05:06;101649.19;;;16.79;100.00
1736;BME280;865;53.672;10.250;2023-06-22T05:07:35;101664.47;;;16.96;100.00
1736;BME280;865;53.672;10.250;2023-06-22T05:10:03;101660.78;;;17.02;100.00
1736;BME280;865;53.672;10.250;2023-06-22T05:12:30;101651.66;;;17.12;100.00
1736;BME280;865;53.672;10.250;2023-06-22T05:14:56;101650.19;;;17.03;100.00
1736;BME280;865;53.672;10.250;2023-06-22T05:17:23;101646.47;;;17.09;100.00
1736;BME280;865;53.672;10.250;2023-06-22T05:19:50;101639.84;;;17.24;100.00
1736;BME280;865;53.672;10.250;2023-06-22T05:22:17;101638.78;;;17.29;100.00
1736;BME280;865;53.672;10.250;2023-06-22T05:24:43;101638.38;;;17.42;100.00
1736;BME280;865;53.672;10.250;2023-06-22T05:27:10;101644.16;;;17.53;100.00
1736;BME280;865;53.672;10.250;2023-06-22T05:29:37;101639.19;;;17.44;100.00
1736;BME280;865;53.672;10.250;2023-06-22T05:32:04;101637.72;;;17.60;100.00
1736;BME280;865;53.672;10.250;2023-06-22T05:34:30;101649.53;;;17.50;100.00
1736;BME280;865;53.672;10.250;2023-06-22T05:36:57;101641.06;;;17.40;100.00
1736;BME280;865;53.672;10.250;2023-06-22T05:39:26;101638.06;;;17.51;100.00
1736;BME280;865;53.672;10.250;2023-06-22T05:41:53;101642.00;;;17.64;100.00
1736;BME280;865;53.672;10.250;2023-06-22T05:44:19;101638.63;;;17.86;100.00
1736;BME280;865;53.672;10.250;2023-06-22T05:46:46;101637.75;;;18.10;100.00
1736;BME280;865;53.672;10.250;2023-06-22T05:49:15;101634.25;;;18.10;100.00
1736;BME280;865;53.672;10.250;2023-06-22T05:51:43;101626.25;;;18.11;100.00
1736;BME280;865;53.672;10.250;2023-06-22T05:54:10;101628.16;;;18.08;100.00
1736;BME280;865;53.672;10.250;2023-06-22T05:56:39;101629.31;;;18.24;100.00
1736;BME280;865;53.672;10.250;2023-06-22T05:59:06;101629.81;;;18.34;100.00
1736;BME280;865;53.672;10.250;2023-06-22T06:01:32;101622.00;;;18.54;100.00
1736;BME280;865;53.672;10.250;2023-06-22T06:04:04;101611.81;;;18.67;100.00
1736;BME280;865;53.672;10.250;2023-06-22T06:06:32;101611.34;;;18.79;100.00
1736;BME280;865;53.672;10.250;2023-06-22T06:09:04;101615.28;;;18.91;100.00
1736;BME280;865;53.672;10.250;2023-06-22T06:11:31;101602.59;;;18.99;100.00
1736;BME280;865;53.672;10.250;2023-06-22T06:13:57;101608.06;;;19.17;100.00
1736;BME280;865;53.672;10.250;2023-06-22T06:16:27;101603.91;;;19.31;100.00
1736;BME280;865;53.672;10.250;2023-06-22T06:18:53;101593.13;;;19.56;100.00
1736;BME280;865;53.672;10.250;2023-06-22T06:21:22;101593.84;;;19.60;100.00
1736;BME280;865;53.672;10.250;2023-06-22T06:23:49;101584.53;;;19.51;100.00
1736;BME280;865;53.672;10.250;2023-06-22T06:26:16;101595.66;;;19.80;100.00
1736;BME280;865;53.672;10.250;2023-06-22T06:28:43;101586.88;;;19.98;100.00
1736;BME280;865;53.672;10.250;2023-06-22T06:31:10;101579.72;;;20.00;100.00
1736;BME280;865;53.672;10.250;2023-06-22T06:33:38;101579.84;;;19.78;100.00
1736;BME280;865;53.672;10.250;2023-06-22T06:36:05;101581.31;;;19.65;100.00
1736;BME280;865;53.672;10.250;2023-06-22T06:38:33;101584.25;;;19.78;100.00
1736;BME280;865;53.672;10.250;2023-06-22T06:41:02;101582.34;;;19.82;100.00
1736;BME280;865;53.672;10.250;2023-06-22T06:43:28;101588.66;;;19.98;100.00
1736;BME280;865;53.672;10.250;2023-06-22T06:45:55;101590.59;;;19.94;100.00
1736;BME280;865;53.672;10.250;2023-06-22T06:48:21;101580.94;;;19.93;100.00
1736;BME280;865;53.672;10.250;2023-06-22T06:50:48;101582.50;;;19.97;100.00
1736;BME280;865;53.672;10.250;2023-06-22T06:53:16;101597.41;;;20.00;100.00
1736;BME280;865;53.672;10.250;2023-06-22T06:55:42;101592.53;;;19.91;100.00
1736;BME280;865;53.672;10.250;2023-06-22T06:58:10;101588.50;;;19.82;100.00
1736;BME280;865;53.672;10.250;2023-06-22T07:00:39;101581.94;;;19.91;100.00
1736;BME280;865;53.672;10.250;2023-06-22T07:03:05;101589.56;;;19.78;100.00
1736;BME280;865;53.672;10.250;2023-06-22T07:05:33;101581.84;;;19.92;100.00
1736;BME280;865;53.672;10.250;2023-06-22T07:08:01;101579.16;;;20.13;100.00
1736;BME280;865;53.672;10.250;2023-06-22T07:10:28;101584.44;;;20.13;100.00
1736;BME280;865;53.672;10.250;2023-06-22T07:12:56;101569.22;;;20.18;100.00
1736;BME280;865;53.672;10.250;2023-06-22T07:15:24;101574.28;;;20.22;100.00
1736;BME280;865;53.672;10.250;2023-06-22T07:17:50;101581.53;;;20.38;100.00
1736;BME280;865;53.672;10.250;2023-06-22T07:20:18;101573.50;;;20.39;100.00
1736;BME280;865;53.672;10.250;2023-06-22T07:22:46;101581.81;;;20.32;100.00
1736;BME280;865;53.672;10.250;2023-06-22T07:25:12;101573.63;;;20.36;100.00
1736;BME280;865;53.672;10.250;2023-06-22T07:28:06;101578.88;;;20.57;100.00
1736;BME280;865;53.672;10.250;2023-06-22T07:30:32;101577.34;;;20.70;100.00
1736;BME280;865;53.672;10.250;2023-06-22T07:33:00;101573.03;;;21.04;100.00
1736;BME280;865;53.672;10.250;2023-06-22T07:35:31;101577.09;;;21.28;100.00
1736;BME280;865;53.672;10.250;2023-06-22T07:37:57;101574.94;;;21.54;100.00
1736;BME280;865;53.672;10.250;2023-06-22T07:40:24;101568.97;;;21.66;100.00
1736;BME280;865;53.672;10.250;2023-06-22T07:42:50;101568.19;;;21.64;100.00
1736;BME280;865;53.672;10.250;2023-06-22T07:45:20;101567.81;;;21.54;100.00
1736;BME280;865;53.672;10.250;2023-06-22T07:47:47;101569.13;;;21.63;100.00
1736;BME280;865;53.672;10.250;2023-06-22T07:50:14;101564.47;;;21.51;100.00
1736;BME280;865;53.672;10.250;2023-06-22T07:52:41;101566.97;;;21.54;100.00
1736;BME280;865;53.672;10.250;2023-06-22T07:55:08;101568.81;;;21.69;100.00
1736;BME280;865;53.672;10.250;2023-06-22T07:57:34;101559.56;;;21.76;100.00
1736;BME280;865;53.672;10.250;2023-06-22T08:00:04;101564.50;;;21.67;100.00
1736;BME280;865;53.672;10.250;2023-06-22T08:02:41;101558.94;;;22.04;100.00
1736;BME280;865;53.672;10.250;2023-06-22T08:05:09;101567.94;;;22.02;100.00
1736;BME280;865;53.672;10.250;2023-06-22T08:07:48;101562.34;;;22.06;100.00
1736;BME280;865;53.672;10.250;2023-06-22T08:10:15;101557.97;;;21.90;100.00
1736;BME280;865;53.672;10.250;2023-06-22T08:12:43;101576.03;;;21.83;100.00
1736;BME280;865;53.672;10.250;2023-06-22T08:15:09;101573.94;;;22.05;100.00
1736;BME280;865;53.672;10.250;2023-06-22T08:17:40;101572.97;;;21.91;100.00
1736;BME280;865;53.672;10.250;2023-06-22T08:20:07;101577.06;;;22.29;100.00
1736;BME280;865;53.672;10.250;2023-06-22T08:22:43;101573.13;;;22.37;100.00
1736;BME280;865;53.672;10.250;2023-06-22T08:25:11;101573.03;;;22.54;100.00
1736;BME280;865;53.672;10.250;2023-06-22T08:27:37;101576.53;;;22.70;100.00
1736;BME280;865;53.672;10.250;2023-06-22T08:30:05;101573.63;;;22.59;100.00
1736;BME280;865;53.672;10.250;2023-06-22T08:32:32;101569.56;;;22.84;100.00
1736;BME280;865;53.672;10.250;2023-06-22T08:34:59;101578.28;;;23.17;100.00
1736;BME280;865;53.672;10.250;2023-06-22T08:37:26;101574.97;;;23.28;100.00
1736;BME280;865;53.672;10.250;2023-06-22T08:40:03;101568.19;;;23.23;100.00
1736;BME280;865;53.672;10.250;2023-06-22T08:42:37;101559.84;;;23.29;100.00
1736;BME280;865;53.672;10.250;2023-06-22T08:45:05;101558.16;;;23.42;100.00
1736;BME280;865;53.672;10.250;2023-06-22T08:47:32;101563.44;;;23.28;100.00
1736;BME280;865;53.672;10.250;2023-06-22T08:49:59;101565.38;;;23.40;100.00
1736;BME280;865;53.672;10.250;2023-06-22T08:52:25;101560.28;;;23.65;100.00
1736;BME280;865;53.672;10.250;2023-06-22T08:54:52;101560.00;;;23.70;100.00
1736;BME280;865;53.672;10.250;2023-06-22T08:57:20;101560.44;;;23.48;100.00
1736;BME280;865;53.672;10.250;2023-06-22T08:59:48;101553.13;;;23.52;100.00
1736;BME280;865;53.672;10.250;2023-06-22T09:02:14;101549.28;;;23.72;100.00
1736;BME280;865;53.672;10.250;2023-06-22T09:04:41;101554.22;;;23.92;100.00
1736;BME280;865;53.672;10.250;2023-06-22T09:07:08;101553.25;;;24.07;100.00
1736;BME280;865;53.672;10.250;2023-06-22T09:09:35;101557.34;;;23.70;100.00
1736;BME280;865;53.672;10.250;2023-06-22T09:12:02;101555.53;;;23.85;100.00
1736;BME280;865;53.672;10.250;2023-06-22T09:14:28;101553.13;;;24.09;100.00
1736;BME280;865;53.672;10.250;2023-06-22T09:16:55;101552.06;;;24.26;100.00
1736;BME280;865;53.672;10.250;2023-06-22T09:19:22;101549.22;;;24.15;100.00
1736;BME280;865;53.672;10.250;2023-06-22T09:21:48;101544.47;;;24.05;100.00
1736;BME280;865;53.672;10.250;2023-06-22T09:24:15;101539.88;;;24.22;100.00
1736;BME280;865;53.672;10.250;2023-06-22T09:26:42;101542.56;;;24.22;100.00
1736;BME280;865;53.672;10.250;2023-06-22T09:29:10;101532.09;;;24.04;100.00
1736;BME280;865;53.672;10.250;2023-06-22T09:31:37;101529.03;;;24.25;100.00
1736;BME280;865;53.672;10.250;2023-06-22T09:34:03;101531.47;;;24.01;100.00
1736;BME280;865;53.672;10.250;2023-06-22T09:36:31;101531.13;;;24.20;100.00
1736;BME280;865;53.672;10.250;2023-06-22T09:38:57;101532.78;;;24.35;100.00
1736;BME280;865;53.672;10.250;2023-06-22T09:41:25;101538.31;;;24.32;100.00
1736;BME280;865;53.672;10.250;2023-06-22T09:43:51;101523.09;;;23.93;100.00
1736;BME280;865;53.672;10.250;2023-06-22T09:46:22;101512.69;;;24.02;100.00
1736;BME280;865;53.672;10.250;2023-06-22T09:48:51;101510.03;;;24.29;100.00
1736;BME280;865;53.672;10.250;2023-06-22T09:51:18;101512.81;;;24.42;100.00
1736;BME280;865;53.672;10.250;2023-06-22T09:53:47;101518.81;;;24.31;100.00
1736;BME280;865;53.672;10.250;2023-06-22T09:56:14;101521.28;;;24.34;100.00
1736;BME280;865;53.672;10.250;2023-06-22T09:58:46;101516.81;;;24.62;100.00
1736;BME280;865;53.672;10.250;2023-06-22T10:01:13;101505.25;;;24.89;100.00
1736;BME280;865;53.672;10.250;2023-06-22T10:03:42;101499.13;;;25.14;100.00
1736;BME280;865;53.672;10.250;2023-06-22T10:06:09;101508.41;;;25.21;100.00
1736;BME280;865;53.672;10.250;2023-06-22T10:08:36;101492.66;;;25.04;100.00
1736;BME280;865;53.672;10.250;2023-06-22T10:11:03;101495.25;;;25.05;100.00
1736;BME280;865;53.672;10.250;2023-06-22T10:13:30;101493.00;;;25.12;100.00
1736;BME280;865;53.672;10.250;2023-06-22T10:15:57;101497.84;;;25.19;100.00
1736;BME280;865;53.672;10.250;2023-06-22T10:18:23;101495.16;;;25.32;100.00
1736;BME280;865;53.672;10.250;2023-06-22T10:20:50;101498.75;;;25.06;100.00
1736;BME280;865;53.672;10.250;2023-06-22T10:23:19;101497.34;;;24.87;100.00
1736;BME280;865;53.672;10.250;2023-06-22T10:25:46;101496.47;;;25.14;100.00
1736;BME280;865;53.672;10.250;2023-06-22T10:28:13;101491.00;;;25.28;100.00
1736;BME280;865;53.672;10.250;2023-06-22T10:30:40;101495.06;;;25.21;100.00
1736;BME280;865;53.672;10.250;2023-06-22T10:33:11;101501.59;;;25.17;100.00
1736;BME280;865;53.672;10.250;2023-06-22T10:35:40;101493.22;;;24.96;100.00
1736;BME280;865;53.672;10.250;2023-06-22T10:38:07;101491.19;;;24.60;100.00
1736;BME280;865;53.672;10.250;2023-06-22T10:40:34;101497.06;;;24.38;100.00
1736;BME280;865;53.672;10.250;2023-06-22T10:43:01;101489.47;;;24.59;100.00
1736;BME280;865;53.672;10.250;2023-06-22T10:45:27;101486.97;;;24.83;100.00
1736;BME280;865;53.672;10.250;2023-06-22T10:47:55;101478.47;;;24.50;100.00
1736;BME280;865;53.672;10.250;2023-06-22T10:50:21;101480.88;;;24.81;100.00
1736;BME280;865;53.672;10.250;2023-06-22T10:52:51;101478.22;;;24.81;100.00
1736;BME280;865;53.672;10.250;2023-06-22T10:55:18;101474.75;;;25.18;100.00
1736;BME280;865;53.672;10.250;2023-06-22T10:57:44;101473.81;;;25.19;100.00
1736;BME280;865;53.672;10.250;2023-06-22T11:00:14;101472.94;;;25.44;100.00
1736;BME280;865;53.672;10.250;2023-06-22T11:02:41;101473.31;;;25.64;100.00
1736;BME280;865;53.672;10.250;2023-06-22T11:05:09;101466.94;;;25.28;100.00
1736;BME280;865;53.672;10.250;2023-06-22T11:07:40;101464.56;;;24.98;100.00
1736;BME280;865;53.672;10.250;2023-06-22T11:10:08;101459.50;;;25.20;100.00
1736;BME280;865;53.672;10.250;2023-06-22T11:12:34;101469.28;;;25.45;100.00
1736;BME280;865;53.672;10.250;2023-06-22T11:15:03;101468.13;;;25.50;100.00
1736;BME280;865;53.672;10.250;2023-06-22T11:17:32;101468.03;;;25.38;100.00
1736;BME280;865;53.672;10.250;2023-06-22T11:19:59;101455.00;;;25.46;100.00
1736;BME280;865;53.672;10.250;2023-06-22T11:22:27;101449.94;;;25.55;100.00
1736;BME280;865;53.672;10.250;2023-06-22T11:24:53;101451.03;;;25.52;100.00
1736;BME280;865;53.672;10.250;2023-06-22T11:27:20;101451.53;;;25.57;100.00
1736;BME280;865;53.672;10.250;2023-06-22T11:29:47;101446.34;;;25.80;100.00
1736;BME280;865;53.672;10.250;2023-06-22T11:32:13;101453.00;;;25.74;100.00
1736;BME280;865;53.672;10.250;2023-06-22T11:34:40;101443.06;;;25.63;100.00
1736;BME280;865;53.672;10.250;2023-06-22T11:37:07;101450.66;;;25.82;100.00
1736;BME280;865;53.672;10.250;2023-06-22T11:39:34;101447.72;;;25.98;100.00
1736;BME280;865;53.672;10.250;2023-06-22T11:42:09;101446.00;;;25.97;100.00
1736;BME280;865;53.672;10.250;2023-06-22T11:44:36;101440.25;;;26.14;100.00
1736;BME280;865;53.672;10.250;2023-06-22T11:47:02;101439.91;;;26.19;100.00
1736;BME280;865;53.672;10.250;2023-06-22T11:49:31;101442.91;;;25.90;100.00
1736;BME280;865;53.672;10.250;2023-06-22T11:51:57;101447.00;;;25.83;100.00
1736;BME280;865;53.672;10.250;2023-06-22T11:54:24;101439.53;;;25.88;100.00
1736;BME280;865;53.672;10.250;2023-06-22T11:56:53;101428.53;;;25.67;100.00
1736;BME280;865;53.672;10.250;2023-06-22T11:59:19;101429.16;;;25.84;100.00
1736;BME280;865;53.672;10.250;2023-06-22T12:01:48;101431.91;;;26.19;100.00
1736;BME280;865;53.672;10.250;2023-06-22T12:04:16;101437.47;;;26.16;100.00
1736;BME280;865;53.672;10.250;2023-06-22T12:06:43;101432.75;;;25.96;100.00
1736;BME280;865;53.672;10.250;2023-06-22T12:09:10;101426.41;;;25.97;100.00
1736;BME280;865;53.672;10.250;2023-06-22T12:11:36;101426.03;;;25.77;100.00
1736;BME280;865;53.672;10.250;2023-06-22T12:14:03;101415.06;;;25.69;100.00
1736;BME280;865;53.672;10.250;2023-06-22T12:16:31;101408.09;;;25.79;100.00
1736;BME280;865;53.672;10.250;2023-06-22T12:18:57;101390.19;;;25.56;100.00
1736;BME280;865;53.672;10.250;2023-06-22T12:21:24;101398.13;;;25.44;100.00
1736;BME280;865;53.672;10.250;2023-06-22T12:23:50;101402.41;;;25.47;100.00
1736;BME280;865;53.672;10.250;2023-06-22T12:26:17;101390.19;;;25.92;100.00
1736;BME280;865;53.672;10.250;2023-06-22T12:28:44;101388.75;;;26.00;100.00
1736;BME280;865;53.672;10.250;2023-06-22T12:31:10;101388.13;;;26.20;100.00
1736;BME280;865;53.672;10.250;2023-06-22T12:33:38;101382.72;;;26.33;100.00
1736;BME280;865;53.672;10.250;2023-06-22T12:36:04;101381.06;;;26.19;100.00
1736;BME280;865;53.672;10.250;2023-06-22T12:38:31;101374.91;;;25.95;100.00
1736;BME280;865;53.672;10.250;2023-06-22T12:40:57;101374.59;;;25.86;100.00
1736;BME280;865;53.672;10.250;2023-06-22T12:43:24;101365.81;;;26.08;100.00
1736;BME280;865;53.672;10.250;2023-06-22T12:45:51;101369.63;;;26.17;100.00
1736;BME280;865;53.672;10.250;2023-06-22T12:48:18;101371.88;;;25.99;100.00
1736;BME280;865;53.672;10.250;2023-06-22T12:50:45;101361.41;;;26.31;100.00
1736;BME280;865;53.672;10.250;2023-06-22T12:53:13;101364.38;;;26.40;100.00
1736;BME280;865;53.672;10.250;2023-06-22T12:55:40;101357.56;;;26.47;100.00
1736;BME280;865;53.672;10.250;2023-06-22T12:58:07;101362.25;;;26.32;100.00
1736;BME280;865;53.672;10.250;2023-06-22T13:00:33;101356.22;;;26.41;100.00
1736;BME280;865;53.672;10.250;2023-06-22T13:03:00;101355.69;;;26.25;100.00
1736;BME280;865;53.672;10.250;2023-06-22T13:05:27;101360.56;;;25.96;100.00
1736;BME280;865;53.672;10.250;2023-06-22T13:07:54;101354.94;;;25.75;100.00
1736;BME280;865;53.672;10.250;2023-06-22T13:10:21;101350.13;;;25.80;100.00
1736;BME280;865;53.672;10.250;2023-06-22T13:12:47;101355.97;;;25.61;100.00